sensor_id;sensor_type;location;lat;lon;timestamp;P1;durP1;ratioP1;P2;durP2;ratioP2
65035;SDS011;51603;49.300;8.880;2023-11-19T00:00:06;14.20;;;12.80;;
65035;SDS011;51603;49.300;8.880;2023-11-19T00:02:37;13.80;;;12.53;;
65035;SDS011;51603;49.300;8.880;2023-11-19T00:05:04;16.10;;;14.10;;
65035;SDS011;51603;49.300;8.880;2023-11-19T00:07:33;31.73;;;23.70;;
65035;SDS011;51603;49.300;8.880;2023-11-19T00:10:06;11.80;;;10.60;;
65035;SDS011;51603;49.300;8.880;2023-11-19T00:12:42;12.13;;;10.50;;
65035;SDS011;51603;49.300;8.880;2023-11-19T00:15:09;15.40;;;13.80;;
65035;SDS011;51603;49.300;8.880;2023-11-19T00:17:38;12.90;;;10.97;;
65035;SDS011;51603;49.300;8.880;2023-11-19T00:20:14;9.83;;;8.93;;
65035;SDS011;51603;49.300;8.880;2023-11-19T00:22:41;9.40;;;8.50;;
65035;SDS011;51603;49.300;8.880;2023-11-19T00:25:07;10.37;;;9.40;;
65035;SDS011;51603;49.300;8.880;2023-11-19T00:27:36;8.93;;;8.07;;
65035;SDS011;51603;49.300;8.880;2023-11-19T00:30:05;12.67;;;9.67;;
65035;SDS011;51603;49.300;8.880;2023-11-19T00:32:32;8.97;;;8.07;;
65035;SDS011;51603;49.300;8.880;2023-11-19T00:34:57;9.23;;;7.70;;
65035;SDS011;51603;49.300;8.880;2023-11-19T00:37:23;10.13;;;9.13;;
65035;SDS011;51603;49.300;8.880;2023-11-19T00:39:48;9.67;;;8.77;;
65035;SDS011;51603;49.300;8.880;2023-11-19T00:42:14;10.00;;;9.00;;
65035;SDS011;51603;49.300;8.880;2023-11-19T00:44:39;13.37;;;11.67;;
65035;SDS011;51603;49.300;8.880;2023-11-19T00:47:06;9.83;;;8.83;;
65035;SDS011;51603;49.300;8.880;2023-11-19T00:49:31;9.50;;;8.50;;
65035;SDS011;51603;49.300;8.880;2023-11-19T00:51:57;9.37;;;8.47;;
65035;SDS011;51603;49.300;8.880;2023-11-19T00:54:23;10.63;;;9.63;;
65035;SDS011;51603;49.300;8.880;2023-11-19T00:56:50;10.87;;;9.67;;
65035;SDS011;51603;49.300;8.880;2023-11-19T00:59:19;10.27;;;9.30;;
65035;SDS011;51603;49.300;8.880;2023-11-19T01:01:45;9.67;;;8.67;;
65035;SDS011;51603;49.300;8.880;2023-11-19T01:04:13;8.60;;;7.80;;
65035;SDS011;51603;49.300;8.880;2023-11-19T01:06:38;10.30;;;9.00;;
65035;SDS011;51603;49.300;8.880;2023-11-19T01:09:04;12.63;;;10.00;;
65035;SDS011;51603;49.300;8.880;2023-11-19T01:11:30;15.27;;;13.77;;
65035;SDS011;51603;49.300;8.880;2023-11-19T01:13:55;10.77;;;9.67;;
65035;SDS011;51603;49.300;8.880;2023-11-19T01:16:21;9.37;;;8.47;;
65035;SDS011;51603;49.300;8.880;2023-11-19T01:18:47;9.90;;;8.43;;
65035;SDS011;51603;49.300;8.880;2023-11-19T01:21:13;9.90;;;8.67;;
65035;SDS011;51603;49.300;8.880;2023-11-19T01:23:39;8.67;;;7.77;;
65035;SDS011;51603;49.300;8.880;2023-11-19T01:26:08;9.00;;;8.10;;
65035;SDS011;51603;49.300;8.880;2023-11-19T01:28:35;8.83;;;7.93;;
65035;SDS011;51603;49.300;8.880;2023-11-19T01:31:00;11.90;;;10.60;;
65035;SDS011;51603;49.300;8.880;2023-11-19T01:33:26;10.20;;;9.00;;
65035;SDS011;51603;49.300;8.880;2023-11-19T01:35:52;12.13;;;10.27;;
65035;SDS011;51603;49.300;8.880;2023-11-19T01:38:18;11.20;;;10.10;;
65035;SDS011;51603;49.300;8.880;2023-11-19T01:40:43;11.17;;;10.00;;
65035;SDS011;51603;49.300;8.880;2023-11-19T01:43:09;11.47;;;10.37;;
65035;SDS011;51603;49.300;8.880;2023-11-19T01:45:36;11.03;;;9.90;;
65035;SDS011;51603;49.300;8.880;2023-11-19T01:48:03;11.50;;;10.40;;
65035;SDS011;51603;49.300;8.880;2023-11-19T01:50:29;14.10;;;12.60;;
65035;SDS011;51603;49.300;8.880;2023-11-19T01:52:56;11.73;;;10.63;;
65035;SDS011;51603;49.300;8.880;2023-11-19T01:55:22;9.93;;;8.93;;
65035;SDS011;51603;49.300;8.880;2023-11-19T01:57:50;11.13;;;9.97;;
65035;SDS011;51603;49.300;8.880;2023-11-19T02:00:18;11.53;;;10.37;;
65035;SDS011;51603;49.300;8.880;2023-11-19T02:02:44;13.90;;;11.90;;
65035;SDS011;51603;49.300;8.880;2023-11-19T02:05:13;9.30;;;8.50;;
65035;SDS011;51603;49.300;8.880;2023-11-19T02:07:39;13.20;;;11.80;;
65035;SDS011;51603;49.300;8.880;2023-11-19T02:10:05;9.87;;;8.97;;
65035;SDS011;51603;49.300;8.880;2023-11-19T02:12:37;11.90;;;10.80;;
65035;SDS011;51603;49.300;8.880;2023-11-19T02:15:03;10.77;;;9.77;;
65035;SDS011;51603;49.300;8.880;2023-11-19T02:17:29;10.97;;;9.97;;
65035;SDS011;51603;49.300;8.880;2023-11-19T02:19:59;9.90;;;9.00;;
65035;SDS011;51603;49.300;8.880;2023-11-19T02:22:25;11.40;;;10.23;;
65035;SDS011;51603;49.300;8.880;2023-11-19T02:24:51;9.10;;;8.30;;
65035;SDS011;51603;49.300;8.880;2023-11-19T02:30:20;12.30;;;11.10;;
65035;SDS011;51603;49.300;8.880;2023-11-19T02:32:51;20.03;;;13.50;;
65035;SDS011;51603;49.300;8.880;2023-11-19T02:35:22;11.03;;;10.03;;
65035;SDS011;51603;49.300;8.880;2023-11-19T02:37:48;10.87;;;9.87;;
65035;SDS011;51603;49.300;8.880;2023-11-19T02:40:14;9.80;;;8.80;;
65035;SDS011;51603;49.300;8.880;2023-11-19T02:42:39;11.30;;;10.27;;
65035;SDS011;51603;49.300;8.880;2023-11-19T02:45:05;9.70;;;8.77;;
65035;SDS011;51603;49.300;8.880;2023-11-19T02:47:32;10.50;;;9.53;;
65035;SDS011;51603;49.300;8.880;2023-11-19T02:49:58;10.13;;;9.23;;
65035;SDS011;51603;49.300;8.880;2023-11-19T02:52:24;13.57;;;12.13;;
65035;SDS011;51603;49.300;8.880;2023-11-19T02:54:50;14.20;;;12.70;;
65035;SDS011;51603;49.300;8.880;2023-11-19T02:57:16;15.77;;;14.03;;
65035;SDS011;51603;49.300;8.880;2023-11-19T02:59:44;12.23;;;10.97;;
65035;SDS011;51603;49.300;8.880;2023-11-19T03:02:10;15.10;;;10.47;;
65035;SDS011;51603;49.300;8.880;2023-11-19T03:04:36;13.30;;;11.90;;
65035;SDS011;51603;49.300;8.880;2023-11-19T03:07:04;12.60;;;11.30;;
65035;SDS011;51603;49.300;8.880;2023-11-19T03:09:30;11.30;;;10.17;;
65035;SDS011;51603;49.300;8.880;2023-11-19T03:11:56;6.93;;;6.23;;
65035;SDS011;51603;49.300;8.880;2023-11-19T03:14:21;4.97;;;4.57;;
65035;SDS011;51603;49.300;8.880;2023-11-19T03:16:48;2.83;;;2.53;;
65035;SDS011;51603;49.300;8.880;2023-11-19T03:19:13;3.17;;;2.87;;
65035;SDS011;51603;49.300;8.880;2023-11-19T03:21:39;2.90;;;2.60;;
65035;SDS011;51603;49.300;8.880;2023-11-19T03:24:04;5.03;;;2.17;;
65035;SDS011;51603;49.300;8.880;2023-11-19T03:26:30;2.20;;;2.00;;
65035;SDS011;51603;49.300;8.880;2023-11-19T03:28:56;3.20;;;3.00;;
65035;SDS011;51603;49.300;8.880;2023-11-19T03:31:22;2.77;;;2.57;;
65035;SDS011;51603;49.300;8.880;2023-11-19T03:33:47;2.40;;;2.20;;
65035;SDS011;51603;49.300;8.880;2023-11-19T03:36:13;2.63;;;2.20;;
65035;SDS011;51603;49.300;8.880;2023-11-19T03:38:39;3.27;;;2.97;;
65035;SDS011;51603;49.300;8.880;2023-11-19T03:41:10;3.17;;;2.87;;
65035;SDS011;51603;49.300;8.880;2023-11-19T03:43:36;2.13;;;1.90;;
65035;SDS011;51603;49.300;8.880;2023-11-19T03:46:02;4.20;;;2.67;;
65035;SDS011;51603;49.300;8.880;2023-11-19T03:48:30;1.93;;;1.83;;
65035;SDS011;51603;49.300;8.880;2023-11-19T03:50:56;2.40;;;2.00;;
65035;SDS011;51603;49.300;8.880;2023-11-19T03:53:21;2.40;;;2.20;;
65035;SDS011;51603;49.300;8.880;2023-11-19T03:55:47;2.37;;;2.10;;
65035;SDS011;51603;49.300;8.880;2023-11-19T03:58:12;3.83;;;2.03;;
65035;SDS011;51603;49.300;8.880;2023-11-19T04:00:38;2.13;;;1.90;;
65035;SDS011;51603;49.300;8.880;2023-11-19T04:03:04;2.73;;;2.20;;
65035;SDS011;51603;49.300;8.880;2023-11-19T04:05:29;3.00;;;2.77;;
65035;SDS011;51603;49.300;8.880;2023-11-19T04:07:55;3.40;;;1.53;;
65035;SDS011;51603;49.300;8.880;2023-11-19T04:10:21;3.27;;;2.43;;
65035;SDS011;51603;49.300;8.880;2023-11-19T04:12:47;1.83;;;1.30;;
65035;SDS011;51603;49.300;8.880;2023-11-19T04:15:13;2.17;;;2.00;;
65035;SDS011;51603;49.300;8.880;2023-11-19T04:17:39;2.10;;;1.90;;
65035;SDS011;51603;49.300;8.880;2023-11-19T04:20:05;1.93;;;1.83;;
65035;SDS011;51603;49.300;8.880;2023-11-19T04:22:35;3.00;;;2.13;;
65035;SDS011;51603;49.300;8.880;2023-11-19T04:25:01;2.43;;;2.23;;
65035;SDS011;51603;49.300;8.880;2023-11-19T04:27:26;2.27;;;1.90;;
65035;SDS011;51603;49.300;8.880;2023-11-19T04:29:52;2.73;;;2.30;;
65035;SDS011;51603;49.300;8.880;2023-11-19T04:32:17;2.53;;;2.33;;
65035;SDS011;51603;49.300;8.880;2023-11-19T04:34:44;2.00;;;1.90;;
65035;SDS011;51603;49.300;8.880;2023-11-19T04:37:09;2.10;;;2.00;;
65035;SDS011;51603;49.300;8.880;2023-11-19T04:39:35;3.03;;;2.23;;
65035;SDS011;51603;49.300;8.880;2023-11-19T04:42:00;3.10;;;2.33;;
65035;SDS011;51603;49.300;8.880;2023-11-19T04:44:26;4.70;;;2.50;;
65035;SDS011;51603;49.300;8.880;2023-11-19T04:46:51;2.93;;;2.50;;
65035;SDS011;51603;49.300;8.880;2023-11-19T04:49:17;2.07;;;1.87;;
65035;SDS011;51603;49.300;8.880;2023-11-19T04:51:44;3.23;;;2.47;;
65035;SDS011;51603;49.300;8.880;2023-11-19T04:54:13;2.47;;;2.27;;
65035;SDS011;51603;49.300;8.880;2023-11-19T04:56:39;3.13;;;2.50;;
65035;SDS011;51603;49.300;8.880;2023-11-19T04:59:05;3.47;;;2.80;;
65035;SDS011;51603;49.300;8.880;2023-11-19T05:01:31;2.60;;;2.30;;
65035;SDS011;51603;49.300;8.880;2023-11-19T05:03:57;4.50;;;4.10;;
65035;SDS011;51603;49.300;8.880;2023-11-19T05:06:29;3.33;;;3.03;;
65035;SDS011;51603;49.300;8.880;2023-11-19T05:08:55;3.23;;;2.73;;
65035;SDS011;51603;49.300;8.880;2023-11-19T05:11:21;3.60;;;3.30;;
65035;SDS011;51603;49.300;8.880;2023-11-19T05:13:46;3.87;;;3.57;;
65035;SDS011;51603;49.300;8.880;2023-11-19T05:16:12;4.30;;;3.17;;
65035;SDS011;51603;49.300;8.880;2023-11-19T05:18:40;3.00;;;2.70;;
65035;SDS011;51603;49.300;8.880;2023-11-19T05:21:06;3.00;;;2.70;;
65035;SDS011;51603;49.300;8.880;2023-11-19T05:23:32;2.97;;;2.50;;
65035;SDS011;51603;49.300;8.880;2023-11-19T05:26:01;3.60;;;3.00;;
65035;SDS011;51603;49.300;8.880;2023-11-19T05:28:27;5.63;;;3.67;;
65035;SDS011;51603;49.300;8.880;2023-11-19T05:30:52;4.10;;;3.80;;
65035;SDS011;51603;49.300;8.880;2023-11-19T05:33:18;3.27;;;3.03;;
65035;SDS011;51603;49.300;8.880;2023-11-19T05:35:43;4.77;;;3.40;;
65035;SDS011;51603;49.300;8.880;2023-11-19T05:38:09;4.50;;;3.90;;
65035;SDS011;51603;49.300;8.880;2023-11-19T05:40:34;3.40;;;3.10;;
65035;SDS011;51603;49.300;8.880;2023-11-19T05:43:00;3.83;;;3.53;;
65035;SDS011;51603;49.300;8.880;2023-11-19T05:45:26;4.40;;;3.33;;
65035;SDS011;51603;49.300;8.880;2023-11-19T05:47:52;3.60;;;3.03;;
65035;SDS011;51603;49.300;8.880;2023-11-19T05:50:17;3.43;;;2.60;;
65035;SDS011;51603;49.300;8.880;2023-11-19T05:52:43;2.57;;;2.30;;
65035;SDS011;51603;49.300;8.880;2023-11-19T05:55:09;4.10;;;2.93;;
65035;SDS011;51603;49.300;8.880;2023-11-19T05:57:36;2.77;;;2.57;;
65035;SDS011;51603;49.300;8.880;2023-11-19T06:00:02;4.33;;;3.90;;
65035;SDS011;51603;49.300;8.880;2023-11-19T06:02:32;4.40;;;2.50;;
65035;SDS011;51603;49.300;8.880;2023-11-19T06:04:57;7.33;;;2.70;;
65035;SDS011;51603;49.300;8.880;2023-11-19T06:07:23;2.23;;;2.03;;
65035;SDS011;51603;49.300;8.880;2023-11-19T06:09:50;2.50;;;2.30;;
65035;SDS011;51603;49.300;8.880;2023-11-19T06:12:15;2.20;;;2.00;;
65035;SDS011;51603;49.300;8.880;2023-11-19T06:14:41;2.30;;;2.10;;
65035;SDS011;51603;49.300;8.880;2023-11-19T06:17:06;1.97;;;1.80;;
65035;SDS011;51603;49.300;8.880;2023-11-19T06:19:33;1.80;;;1.70;;
65035;SDS011;51603;49.300;8.880;2023-11-19T06:21:59;1.70;;;1.60;;
65035;SDS011;51603;49.300;8.880;2023-11-19T06:24:24;2.90;;;1.90;;
65035;SDS011;51603;49.300;8.880;2023-11-19T06:26:50;2.80;;;1.70;;
65035;SDS011;51603;49.300;8.880;2023-11-19T06:29:15;1.50;;;1.30;;
65035;SDS011;51603;49.300;8.880;2023-11-19T06:31:44;2.00;;;1.33;;
65035;SDS011;51603;49.300;8.880;2023-11-19T06:34:10;1.80;;;1.20;;
65035;SDS011;51603;49.300;8.880;2023-11-19T06:36:35;2.10;;;1.70;;
65035;SDS011;51603;49.300;8.880;2023-11-19T06:39:01;1.73;;;1.17;;
65035;SDS011;51603;49.300;8.880;2023-11-19T06:41:27;2.90;;;1.20;;
65035;SDS011;51603;49.300;8.880;2023-11-19T06:43:53;1.77;;;1.00;;
65035;SDS011;51603;49.300;8.880;2023-11-19T06:46:19;3.60;;;1.57;;
65035;SDS011;51603;49.300;8.880;2023-11-19T06:48:45;1.57;;;1.40;;
65035;SDS011;51603;49.300;8.880;2023-11-19T06:51:11;2.50;;;1.20;;
65035;SDS011;51603;49.300;8.880;2023-11-19T06:53:37;1.03;;;0.90;;
65035;SDS011;51603;49.300;8.880;2023-11-19T06:56:04;1.07;;;0.80;;
65035;SDS011;51603;49.300;8.880;2023-11-19T06:58:31;1.40;;;0.73;;
65035;SDS011;51603;49.300;8.880;2023-11-19T07:01:00;1.70;;;1.60;;
65035;SDS011;51603;49.300;8.880;2023-11-19T07:03:26;1.33;;;1.23;;
65035;SDS011;51603;49.300;8.880;2023-11-19T07:05:51;2.30;;;1.00;;
65035;SDS011;51603;49.300;8.880;2023-11-19T07:08:17;2.43;;;0.80;;
65035;SDS011;51603;49.300;8.880;2023-11-19T07:10:42;1.53;;;1.20;;
65035;SDS011;51603;49.300;8.880;2023-11-19T07:13:08;2.17;;;1.00;;
65035;SDS011;51603;49.300;8.880;2023-11-19T07:15:33;1.67;;;1.10;;
65035;SDS011;51603;49.300;8.880;2023-11-19T07:17:59;2.10;;;0.90;;
65035;SDS011;51603;49.300;8.880;2023-11-19T07:20:24;3.83;;;0.97;;
65035;SDS011;51603;49.300;8.880;2023-11-19T07:22:51;1.63;;;1.00;;
65035;SDS011;51603;49.300;8.880;2023-11-19T07:25:17;2.30;;;1.07;;
65035;SDS011;51603;49.300;8.880;2023-11-19T07:27:42;0.90;;;0.80;;
65035;SDS011;51603;49.300;8.880;2023-11-19T07:30:08;1.47;;;0.70;;
65035;SDS011;51603;49.300;8.880;2023-11-19T07:32:34;1.27;;;0.77;;
65035;SDS011;51603;49.300;8.880;2023-11-19T07:34:59;1.63;;;0.73;;
65035;SDS011;51603;49.300;8.880;2023-11-19T07:37:25;1.60;;;0.80;;
65035;SDS011;51603;49.300;8.880;2023-11-19T07:39:51;1.53;;;0.87;;
65035;SDS011;51603;49.300;8.880;2023-11-19T07:42:16;1.23;;;0.80;;
65035;SDS011;51603;49.300;8.880;2023-11-19T07:44:43;2.10;;;0.80;;
65035;SDS011;51603;49.300;8.880;2023-11-19T07:47:08;1.17;;;0.90;;
65035;SDS011;51603;49.300;8.880;2023-11-19T07:49:35;2.37;;;0.97;;
65035;SDS011;51603;49.300;8.880;2023-11-19T07:52:00;1.73;;;1.00;;
65035;SDS011;51603;49.300;8.880;2023-11-19T07:54:27;3.73;;;0.90;;
65035;SDS011;51603;49.300;8.880;2023-11-19T07:56:53;1.00;;;0.70;;
65035;SDS011;51603;49.300;8.880;2023-11-19T07:59:19;1.00;;;0.70;;
65035;SDS011;51603;49.300;8.880;2023-11-19T08:01:45;0.87;;;0.60;;
65035;SDS011;51603;49.300;8.880;2023-11-19T08:04:10;0.60;;;0.50;;
65035;SDS011;51603;49.300;8.880;2023-11-19T08:06:36;2.10;;;0.80;;
65035;SDS011;51603;49.300;8.880;2023-11-19T08:09:01;1.07;;;0.93;;
65035;SDS011;51603;49.300;8.880;2023-11-19T08:11:27;2.10;;;1.17;;
65035;SDS011;51603;49.300;8.880;2023-11-19T08:13:52;4.33;;;3.93;;
65035;SDS011;51603;49.300;8.880;2023-11-19T08:16:18;2.73;;;1.90;;
65035;SDS011;51603;49.300;8.880;2023-11-19T08:18:43;1.40;;;1.30;;
65035;SDS011;51603;49.300;8.880;2023-11-19T08:21:09;2.40;;;1.07;;
65035;SDS011;51603;49.300;8.880;2023-11-19T08:23:35;5.10;;;4.10;;
65035;SDS011;51603;49.300;8.880;2023-11-19T08:26:01;5.30;;;3.97;;
65035;SDS011;51603;49.300;8.880;2023-11-19T08:28:27;9.77;;;5.60;;
65035;SDS011;51603;49.300;8.880;2023-11-19T08:30:52;5.83;;;2.80;;
65035;SDS011;51603;49.300;8.880;2023-11-19T08:33:18;4.50;;;2.87;;
65035;SDS011;51603;49.300;8.880;2023-11-19T08:35:43;1.33;;;1.17;;
65035;SDS011;51603;49.300;8.880;2023-11-19T08:38:10;9.97;;;6.53;;
65035;SDS011;51603;49.300;8.880;2023-11-19T08:40:36;2.80;;;1.20;;
65035;SDS011;51603;49.300;8.880;2023-11-19T08:43:02;1.70;;;1.10;;
65035;SDS011;51603;49.300;8.880;2023-11-19T08:45:27;1.83;;;0.90;;
65035;SDS011;51603;49.300;8.880;2023-11-19T08:47:53;2.83;;;1.30;;
65035;SDS011;51603;49.300;8.880;2023-11-19T08:50:18;2.27;;;1.37;;
65035;SDS011;51603;49.300;8.880;2023-11-19T08:52:45;1.43;;;0.80;;
65035;SDS011;51603;49.300;8.880;2023-11-19T08:55:10;1.97;;;1.03;;
65035;SDS011;51603;49.300;8.880;2023-11-19T08:57:38;3.33;;;1.03;;
65035;SDS011;51603;49.300;8.880;2023-11-19T09:00:04;1.83;;;1.10;;
65035;SDS011;51603;49.300;8.880;2023-11-19T09:02:34;1.90;;;0.90;;
65035;SDS011;51603;49.300;8.880;2023-11-19T09:05:02;2.97;;;1.00;;
65035;SDS011;51603;49.300;8.880;2023-11-19T09:07:28;2.60;;;1.30;;
65035;SDS011;51603;49.300;8.880;2023-11-19T09:09:54;1.40;;;0.70;;
65035;SDS011;51603;49.300;8.880;2023-11-19T09:12:20;1.70;;;0.93;;
65035;SDS011;51603;49.300;8.880;2023-11-19T09:14:45;1.63;;;0.80;;
65035;SDS011;51603;49.300;8.880;2023-11-19T09:17:11;3.40;;;1.53;;
65035;SDS011;51603;49.300;8.880;2023-11-19T09:19:36;2.10;;;0.80;;
65035;SDS011;51603;49.300;8.880;2023-11-19T09:22:02;2.50;;;1.13;;
65035;SDS011;51603;49.300;8.880;2023-11-19T09:24:28;1.47;;;1.00;;
65035;SDS011;51603;49.300;8.880;2023-11-19T09:26:53;2.50;;;1.07;;
65035;SDS011;51603;49.300;8.880;2023-11-19T09:29:19;4.40;;;0.77;;
65035;SDS011;51603;49.300;8.880;2023-11-19T09:31:46;2.10;;;1.20;;
65035;SDS011;51603;49.300;8.880;2023-11-19T09:34:12;2.90;;;1.43;;
65035;SDS011;51603;49.300;8.880;2023-11-19T09:36:37;1.40;;;1.00;;
65035;SDS011;51603;49.300;8.880;2023-11-19T09:39:03;1.83;;;1.10;;
65035;SDS011;51603;49.300;8.880;2023-11-19T09:41:30;2.43;;;1.20;;
65035;SDS011;51603;49.300;8.880;2023-11-19T09:43:55;1.63;;;0.90;;
65035;SDS011;51603;49.300;8.880;2023-11-19T09:46:21;2.20;;;1.03;;
65035;SDS011;51603;49.300;8.880;2023-11-19T09:48:49;1.90;;;0.90;;
65035;SDS011;51603;49.300;8.880;2023-11-19T09:51:19;2.10;;;1.20;;
65035;SDS011;51603;49.300;8.880;2023-11-19T09:53:45;1.00;;;0.80;;
65035;SDS011;51603;49.300;8.880;2023-11-19T09:56:11;2.43;;;1.00;;
65035;SDS011;51603;49.300;8.880;2023-11-19T09:58:37;2.60;;;1.40;;
65035;SDS011;51603;49.300;8.880;2023-11-19T10:01:03;2.13;;;1.30;;
65035;SDS011;51603;49.300;8.880;2023-11-19T10:03:32;2.40;;;1.33;;
65035;SDS011;51603;49.300;8.880;2023-11-19T10:06:03;1.60;;;0.87;;
65035;SDS011;51603;49.300;8.880;2023-11-19T10:08:31;2.30;;;0.60;;
65035;SDS011;51603;49.300;8.880;2023-11-19T10:10:57;1.47;;;0.80;;
65035;SDS011;51603;49.300;8.880;2023-11-19T10:13:26;1.73;;;0.80;;
65035;SDS011;51603;49.300;8.880;2023-11-19T10:15:53;2.70;;;0.97;;
65035;SDS011;51603;49.300;8.880;2023-11-19T10:18:23;3.13;;;1.00;;
65035;SDS011;51603;49.300;8.880;2023-11-19T10:20:52;5.13;;;1.30;;
65035;SDS011;51603;49.300;8.880;2023-11-19T10:23:18;3.03;;;0.93;;
65035;SDS011;51603;49.300;8.880;2023-11-19T10:25:44;1.40;;;0.80;;
65035;SDS011;51603;49.300;8.880;2023-11-19T10:28:09;4.70;;;1.23;;
65035;SDS011;51603;49.300;8.880;2023-11-19T10:30:35;1.30;;;0.87;;
65035;SDS011;51603;49.300;8.880;2023-11-19T10:33:04;1.10;;;0.87;;
65035;SDS011;51603;49.300;8.880;2023-11-19T10:35:34;1.57;;;0.80;;
65035;SDS011;51603;49.300;8.880;2023-11-19T10:38:13;2.03;;;0.80;;
65035;SDS011;51603;49.300;8.880;2023-11-19T10:40:42;3.67;;;1.00;;
65035;SDS011;51603;49.300;8.880;2023-11-19T10:43:08;2.23;;;0.90;;
65035;SDS011;51603;49.300;8.880;2023-11-19T10:45:34;3.57;;;1.00;;
65035;SDS011;51603;49.300;8.880;2023-11-19T10:48:01;1.60;;;0.90;;
65035;SDS011;51603;49.300;8.880;2023-11-19T10:50:27;2.27;;;1.00;;
65035;SDS011;51603;49.300;8.880;2023-11-19T10:52:55;2.60;;;1.00;;
65035;SDS011;51603;49.300;8.880;2023-11-19T10:55:28;3.33;;;1.10;;
65035;SDS011;51603;49.300;8.880;2023-11-19T10:58:00;1.77;;;0.70;;
65035;SDS011;51603;49.300;8.880;2023-11-19T11:00:37;2.50;;;1.20;;
65035;SDS011;51603;49.300;8.880;2023-11-19T11:03:17;2.97;;;0.90;;
65035;SDS011;51603;49.300;8.880;2023-11-19T11:05:46;2.37;;;1.10;;
65035;SDS011;51603;49.300;8.880;2023-11-19T11:08:12;1.83;;;0.70;;
65035;SDS011;51603;49.300;8.880;2023-11-19T11:10:49;2.23;;;0.80;;
65035;SDS011;51603;49.300;8.880;2023-11-19T11:13:20;2.30;;;0.90;;
65035;SDS011;51603;49.300;8.880;2023-11-19T11:15:49;5.43;;;1.23;;
65035;SDS011;51603;49.300;8.880;2023-11-19T11:18:15;2.27;;;0.80;;
65035;SDS011;51603;49.300;8.880;2023-11-19T11:20:44;2.43;;;1.13;;
65035;SDS011;51603;49.300;8.880;2023-11-19T11:28:58;3.03;;;0.93;;
65035;SDS011;51603;49.300;8.880;2023-11-19T11:34:18;1.97;;;0.83;;
65035;SDS011;51603;49.300;8.880;2023-11-19T11:39:58;2.13;;;1.10;;
65035;SDS011;51603;49.300;8.880;2023-11-19T11:44:57;4.73;;;1.20;;
65035;SDS011;51603;49.300;8.880;2023-11-19T11:47:23;4.20;;;1.00;;
65035;SDS011;51603;49.300;8.880;2023-11-19T11:49:48;1.63;;;1.03;;
65035;SDS011;51603;49.300;8.880;2023-11-19T11:52:16;2.43;;;0.90;;
65035;SDS011;51603;49.300;8.880;2023-11-19T11:54:42;2.27;;;0.90;;
65035;SDS011;51603;49.300;8.880;2023-11-19T11:59:41;2.20;;;1.20;;
65035;SDS011;51603;49.300;8.880;2023-11-19T12:02:14;1.50;;;0.87;;
65035;SDS011;51603;49.300;8.880;2023-11-19T12:04:41;2.40;;;0.80;;
65035;SDS011;51603;49.300;8.880;2023-11-19T12:07:20;2.33;;;1.00;;
65035;SDS011;51603;49.300;8.880;2023-11-19T12:09:49;3.30;;;1.13;;
65035;SDS011;51603;49.300;8.880;2023-11-19T12:12:19;3.20;;;1.00;;
65035;SDS011;51603;49.300;8.880;2023-11-19T12:15:01;5.00;;;1.20;;
65035;SDS011;51603;49.300;8.880;2023-11-19T12:19:59;1.83;;;1.00;;
65035;SDS011;51603;49.300;8.880;2023-11-19T12:22:25;1.77;;;0.90;;
65035;SDS011;51603;49.300;8.880;2023-11-19T12:24:51;2.10;;;1.00;;
65035;SDS011;51603;49.300;8.880;2023-11-19T12:27:21;2.40;;;0.90;;
65035;SDS011;51603;49.300;8.880;2023-11-19T12:29:51;3.77;;;1.00;;
65035;SDS011;51603;49.300;8.880;2023-11-19T12:32:16;3.03;;;1.13;;
65035;SDS011;51603;49.300;8.880;2023-11-19T12:34:42;2.40;;;1.03;;
65035;SDS011;51603;49.300;8.880;2023-11-19T12:37:09;1.73;;;0.93;;
65035;SDS011;51603;49.300;8.880;2023-11-19T12:39:35;2.80;;;0.90;;
65035;SDS011;51603;49.300;8.880;2023-11-19T12:42:01;2.77;;;1.20;;
65035;SDS011;51603;49.300;8.880;2023-11-19T12:44:27;2.30;;;0.87;;
65035;SDS011;51603;49.300;8.880;2023-11-19T12:47:05;1.40;;;0.70;;
65035;SDS011;51603;49.300;8.880;2023-11-19T12:49:32;5.33;;;1.30;;
65035;SDS011;51603;49.300;8.880;2023-11-19T12:51:58;2.10;;;0.90;;
65035;SDS011;51603;49.300;8.880;2023-11-19T12:54:34;4.33;;;1.13;;
65035;SDS011;51603;49.300;8.880;2023-11-19T12:57:00;3.43;;;0.80;;
65035;SDS011;51603;49.300;8.880;2023-11-19T12:59:27;2.63;;;1.03;;
65035;SDS011;51603;49.300;8.880;2023-11-19T13:01:59;2.47;;;1.10;;
65035;SDS011;51603;49.300;8.880;2023-11-19T13:04:28;2.17;;;1.00;;
65035;SDS011;51603;49.300;8.880;2023-11-19T13:07:00;4.33;;;1.77;;
65035;SDS011;51603;49.300;8.880;2023-11-19T13:09:29;2.20;;;1.20;;
65035;SDS011;51603;49.300;8.880;2023-11-19T13:11:55;2.83;;;0.90;;
65035;SDS011;51603;49.300;8.880;2023-11-19T13:14:35;2.33;;;1.10;;
65035;SDS011;51603;49.300;8.880;2023-11-19T13:17:01;3.03;;;1.30;;
65035;SDS011;51603;49.300;8.880;2023-11-19T13:19:27;2.97;;;1.07;;
65035;SDS011;51603;49.300;8.880;2023-11-19T13:21:52;4.07;;;1.27;;
65035;SDS011;51603;49.300;8.880;2023-11-19T13:24:18;2.63;;;1.33;;
65035;SDS011;51603;49.300;8.880;2023-11-19T13:26:43;4.03;;;1.23;;
65035;SDS011;51603;49.300;8.880;2023-11-19T13:29:09;2.60;;;1.27;;
65035;SDS011;51603;49.300;8.880;2023-11-19T13:31:35;2.70;;;0.83;;
65035;SDS011;51603;49.300;8.880;2023-11-19T13:34:01;3.40;;;1.10;;
65035;SDS011;51603;49.300;8.880;2023-11-19T13:36:27;2.20;;;0.80;;
65035;SDS011;51603;49.300;8.880;2023-11-19T13:38:52;2.67;;;1.10;;
65035;SDS011;51603;49.300;8.880;2023-11-19T13:41:23;2.50;;;0.80;;
65035;SDS011;51603;49.300;8.880;2023-11-19T13:43:50;4.30;;;0.80;;
65035;SDS011;51603;49.300;8.880;2023-11-19T13:46:15;3.33;;;1.03;;
65035;SDS011;51603;49.300;8.880;2023-11-19T13:48:41;1.60;;;0.80;;
65035;SDS011;51603;49.300;8.880;2023-11-19T13:51:06;2.37;;;0.93;;
65035;SDS011;51603;49.300;8.880;2023-11-19T13:53:32;4.83;;;1.07;;
65035;SDS011;51603;49.300;8.880;2023-11-19T13:55:58;2.37;;;0.90;;
65035;SDS011;51603;49.300;8.880;2023-11-19T13:58:24;2.93;;;1.20;;
65035;SDS011;51603;49.300;8.880;2023-11-19T14:00:49;7.03;;;1.60;;
65035;SDS011;51603;49.300;8.880;2023-11-19T14:03:15;5.13;;;1.27;;
65035;SDS011;51603;49.300;8.880;2023-11-19T14:05:41;2.90;;;1.00;;
65035;SDS011;51603;49.300;8.880;2023-11-19T14:08:07;3.17;;;1.10;;
65035;SDS011;51603;49.300;8.880;2023-11-19T14:10:38;3.33;;;1.17;;
65035;SDS011;51603;49.300;8.880;2023-11-19T14:13:05;4.53;;;1.27;;
65035;SDS011;51603;49.300;8.880;2023-11-19T14:15:31;5.93;;;1.40;;
65035;SDS011;51603;49.300;8.880;2023-11-19T14:17:57;4.40;;;1.17;;
65035;SDS011;51603;49.300;8.880;2023-11-19T14:20:22;1.63;;;1.10;;
65035;SDS011;51603;49.300;8.880;2023-11-19T14:22:48;2.60;;;1.30;;
65035;SDS011;51603;49.300;8.880;2023-11-19T14:25:14;1.97;;;1.00;;
65035;SDS011;51603;49.300;8.880;2023-11-19T14:27:40;2.43;;;1.00;;
65035;SDS011;51603;49.300;8.880;2023-11-19T14:30:07;2.13;;;1.17;;
65035;SDS011;51603;49.300;8.880;2023-11-19T14:32:36;4.23;;;1.50;;
65035;SDS011;51603;49.300;8.880;2023-11-19T14:35:02;4.13;;;1.60;;
65035;SDS011;51603;49.300;8.880;2023-11-19T14:37:28;5.07;;;1.30;;
65035;SDS011;51603;49.300;8.880;2023-11-19T14:39:54;3.67;;;1.07;;
65035;SDS011;51603;49.300;8.880;2023-11-19T14:42:20;2.40;;;1.37;;
65035;SDS011;51603;49.300;8.880;2023-11-19T14:44:45;1.77;;;1.13;;
65035;SDS011;51603;49.300;8.880;2023-11-19T14:47:11;3.20;;;1.07;;
65035;SDS011;51603;49.300;8.880;2023-11-19T14:49:36;1.83;;;1.03;;
65035;SDS011;51603;49.300;8.880;2023-11-19T14:52:02;2.00;;;1.17;;
65035;SDS011;51603;49.300;8.880;2023-11-19T14:54:29;2.60;;;1.13;;
65035;SDS011;51603;49.300;8.880;2023-11-19T14:56:54;2.40;;;1.07;;
65035;SDS011;51603;49.300;8.880;2023-11-19T14:59:20;6.60;;;1.10;;
65035;SDS011;51603;49.300;8.880;2023-11-19T15:01:45;2.30;;;1.07;;
65035;SDS011;51603;49.300;8.880;2023-11-19T15:04:11;2.27;;;1.10;;